createdAt,value
2023-01-22T00:17:38.255Z,18.4
2023-01-22T00:37:38.227Z,18.3
2023-01-22T00:57:38.105Z,18.3
2023-01-22T01:17:38.107Z,18.2
2023-01-22T01:57:38.153Z,18.1
2023-01-22T02:17:38.054Z,18.1
2023-01-22T02:37:38.019Z,18.0
2023-01-22T02:57:38.016Z,18.0
2023-01-22T03:17:38.039Z,18.0
2023-01-22T03:37:37.969Z,17.9
2023-01-22T03:57:37.910Z,17.9
2023-01-22T04:17:37.891Z,17.8
2023-01-22T04:37:37.855Z,17.8
2023-01-22T04:57:37.830Z,17.8
2023-01-22T05:17:37.826Z,17.7
2023-01-22T05:37:37.831Z,17.8
2023-01-22T05:57:37.784Z,18.2
2023-01-22T06:17:37.759Z,18.5
2023-01-22T06:37:37.716Z,18.7
2023-01-22T06:57:37.699Z,18.8
2023-01-22T07:17:37.882Z,19.0
2023-01-22T07:37:37.644Z,19.1
2023-01-22T07:57:37.607Z,19.1
2023-01-22T08:17:37.619Z,19.2
2023-01-22T08:37:37.578Z,19.3
2023-01-22T08:57:37.534Z,19.4
2023-01-22T09:17:37.513Z,19.4
2023-01-22T09:37:37.490Z,19.5
2023-01-22T09:57:37.454Z,19.5
2023-01-22T10:17:37.451Z,19.6
2023-01-22T10:37:37.395Z,19.6
2023-01-22T10:57:37.414Z,19.6
2023-01-22T11:17:37.396Z,19.7
2023-01-22T11:37:37.328Z,19.7
2023-01-22T11:57:37.332Z,19.7
2023-01-22T12:17:37.313Z,19.8
2023-01-22T12:37:37.317Z,19.8
2023-01-22T12:57:37.221Z,19.8
2023-01-22T13:17:37.229Z,19.8
2023-01-22T13:37:37.173Z,19.8
2023-01-22T13:57:37.230Z,19.9
2023-01-22T14:17:37.131Z,19.9
2023-01-22T14:37:37.108Z,19.9
2023-01-22T14:57:37.113Z,19.9
2023-01-22T15:17:37.050Z,19.9
2023-01-22T15:37:37.037Z,19.9
2023-01-22T15:57:37.016Z,19.9
2023-01-22T16:17:36.969Z,20.1
2023-01-22T16:37:36.941Z,20.2
2023-01-22T16:57:37.010Z,20.2
2023-01-22T17:17:36.917Z,20.2
2023-01-22T17:37:37.058Z,20.3
2023-01-22T17:57:37.028Z,20.3
2023-01-22T18:17:36.864Z,20.3
2023-01-22T18:37:36.827Z,20.3
2023-01-22T18:57:36.794Z,20.4
2023-01-22T19:17:36.761Z,20.3
2023-01-22T19:37:36.807Z,20.2
2023-01-22T19:57:36.725Z,20.0
2023-01-22T20:17:36.701Z,19.8
2023-01-22T20:37:36.676Z,19.6
2023-01-22T20:57:36.804Z,19.5
2023-01-22T21:17:36.603Z,19.3
2023-01-22T21:37:36.565Z,19.2
2023-01-22T21:57:36.566Z,19.0
2023-01-22T22:17:36.506Z,18.9
2023-01-22T22:37:36.526Z,18.8
2023-01-22T22:57:36.458Z,18.7
2023-01-22T23:17:36.455Z,18.6
2023-01-22T23:37:36.514Z,18.5
2023-01-22T23:57:36.488Z,18.5
